createdAt,value
2017-12-31T00:02:03.798Z,11.03
2017-12-31T00:04:38.566Z,11.09
2017-12-31T00:07:13.231Z,11.07
2017-12-31T00:09:47.822Z,11.05
2017-12-31T00:12:22.630Z,11.06
2017-12-31T00:14:57.710Z,11.09
2017-12-31T00:17:32.634Z,11.05
2017-12-31T00:20:07.336Z,11.07
2017-12-31T00:22:41.807Z,11.08
2017-12-31T00:25:16.917Z,11.13
2017-12-31T00:27:51.627Z,11.12
2017-12-31T00:30:26.607Z,11.08
2017-12-31T00:33:01.501Z,11.09
2017-12-31T00:35:36.418Z,11.08
2017-12-31T00:38:11.377Z,11.07
2017-12-31T00:40:46.314Z,11.05
2017-12-31T00:43:21.370Z,11.08
2017-12-31T00:45:56.546Z,11.03
2017-12-31T00:48:31.585Z,11.02
2017-12-31T00:51:06.378Z,11.02
2017-12-31T00:53:41.311Z,11.03
2017-12-31T00:56:16.264Z,11.01
2017-12-31T00:58:51.325Z,10.99
2017-12-31T01:01:26.179Z,10.95
2017-12-31T01:04:01.075Z,10.93
2017-12-31T01:06:36.122Z,10.86
2017-12-31T01:09:11.001Z,10.86
2017-12-31T01:11:46.005Z,10.86
2017-12-31T01:14:20.615Z,10.88
2017-12-31T01:16:55.529Z,10.84
2017-12-31T01:19:30.107Z,10.84
2017-12-31T01:22:05.006Z,10.84
2017-12-31T01:24:39.779Z,10.80
2017-12-31T01:27:14.681Z,10.79
2017-12-31T01:29:49.689Z,10.81
2017-12-31T01:32:24.418Z,10.81
2017-12-31T01:34:59.242Z,10.79
2017-12-31T01:37:34.059Z,10.81
2017-12-31T01:40:08.931Z,10.80
2017-12-31T01:42:43.971Z,10.87
2017-12-31T01:45:18.894Z,10.82
2017-12-31T01:47:53.822Z,10.82
2017-12-31T01:50:28.655Z,10.82
2017-12-31T01:53:03.370Z,10.83
2017-12-31T01:55:38.351Z,10.82
2017-12-31T01:58:13.691Z,10.80
2017-12-31T02:00:48.013Z,10.81
2017-12-31T02:03:22.909Z,10.80
2017-12-31T02:05:57.648Z,10.79
2017-12-31T02:08:32.474Z,10.81
2017-12-31T02:11:07.775Z,10.77
2017-12-31T02:13:42.900Z,10.74
2017-12-31T02:16:18.086Z,10.74
2017-12-31T02:18:52.782Z,10.73
2017-12-31T02:21:27.779Z,10.74
2017-12-31T02:24:03.083Z,10.72
2017-12-31T02:26:37.835Z,10.72
2017-12-31T02:29:12.552Z,10.73
2017-12-31T02:31:47.387Z,10.76
2017-12-31T02:34:22.058Z,10.82
2017-12-31T02:36:56.915Z,10.79
2017-12-31T02:39:31.742Z,10.79
2017-12-31T02:42:06.630Z,10.77
2017-12-31T02:44:41.497Z,10.81
2017-12-31T02:47:16.367Z,10.81
2017-12-31T02:49:51.635Z,10.77
2017-12-31T02:52:26.226Z,10.81
2017-12-31T02:55:01.268Z,10.88
2017-12-31T02:57:35.946Z,10.83
2017-12-31T03:00:10.219Z,10.78
2017-12-31T03:02:45.257Z,10.75
2017-12-31T03:05:20.155Z,10.74
2017-12-31T03:07:55.147Z,10.74
2017-12-31T03:10:30.027Z,10.75
2017-12-31T03:13:04.795Z,10.79
2017-12-31T03:15:39.594Z,10.86
2017-12-31T03:18:14.578Z,10.90
2017-12-31T03:20:49.408Z,10.83
2017-12-31T03:23:24.383Z,10.85
2017-12-31T03:25:58.615Z,10.81
2017-12-31T03:28:33.733Z,10.73
2017-12-31T03:31:08.511Z,10.77
2017-12-31T03:33:43.318Z,10.78
2017-12-31T03:36:18.436Z,10.82
2017-12-31T03:38:53.056Z,10.79
2017-12-31T03:41:27.922Z,10.81
2017-12-31T03:44:02.712Z,10.82
2017-12-31T03:46:37.483Z,10.85
2017-12-31T03:49:12.498Z,10.87
2017-12-31T03:51:47.258Z,10.90
2017-12-31T03:54:22.145Z,10.94
2017-12-31T03:56:57.015Z,10.93
2017-12-31T03:59:31.950Z,10.87
2017-12-31T04:02:06.765Z,10.80
2017-12-31T04:04:41.497Z,10.81
2017-12-31T04:07:16.078Z,10.79
2017-12-31T04:09:50.778Z,10.83
2017-12-31T04:12:25.350Z,10.85
2017-12-31T04:15:00.541Z,10.85
2017-12-31T04:17:35.757Z,10.86
2017-12-31T04:20:10.865Z,10.85
2017-12-31T04:22:45.547Z,10.81
2017-12-31T04:25:20.419Z,10.76
2017-12-31T04:28:00.766Z,10.74
2017-12-31T04:30:35.174Z,10.71
2017-12-31T04:33:09.991Z,10.72
2017-12-31T04:35:44.834Z,10.73
2017-12-31T04:38:19.835Z,10.77
2017-12-31T04:40:54.691Z,10.72
2017-12-31T04:43:29.599Z,10.64
2017-12-31T04:46:04.586Z,10.56
2017-12-31T04:48:39.527Z,10.57
2017-12-31T04:51:13.629Z,10.61
2017-12-31T04:53:48.827Z,10.60
2017-12-31T04:56:23.831Z,10.57
2017-12-31T04:58:58.789Z,10.50
2017-12-31T05:01:33.688Z,10.48
2017-12-31T05:04:08.571Z,10.43
2017-12-31T05:06:43.299Z,10.41
2017-12-31T05:09:18.424Z,10.26
2017-12-31T05:11:53.397Z,10.16
2017-12-31T05:14:28.283Z,10.17
2017-12-31T05:17:03.062Z,10.14
2017-12-31T05:19:37.873Z,10.16
2017-12-31T05:22:12.611Z,10.18
2017-12-31T05:24:47.406Z,10.07
2017-12-31T05:27:22.398Z,9.97
2017-12-31T05:29:57.340Z,9.94
2017-12-31T05:32:32.270Z,9.91
2017-12-31T05:35:07.140Z,9.97
2017-12-31T05:37:42.282Z,9.93
2017-12-31T05:40:17.648Z,9.83
2017-12-31T05:42:52.814Z,9.83
2017-12-31T05:45:27.695Z,9.85
2017-12-31T05:48:02.374Z,9.82
2017-12-31T05:50:37.190Z,9.87
2017-12-31T05:53:11.870Z,9.94
2017-12-31T05:55:46.840Z,10.04
2017-12-31T05:58:21.558Z,9.99
2017-12-31T06:00:56.357Z,9.89
2017-12-31T06:03:31.239Z,9.77
2017-12-31T06:06:05.934Z,9.68
2017-12-31T06:08:40.721Z,9.66
2017-12-31T06:11:15.493Z,9.60
2017-12-31T06:13:50.355Z,9.54
2017-12-31T06:16:25.082Z,9.52
2017-12-31T06:18:59.881Z,9.49
2017-12-31T06:21:34.718Z,9.48
2017-12-31T06:24:09.529Z,9.43
2017-12-31T06:26:44.306Z,9.38
2017-12-31T06:29:19.191Z,9.36
2017-12-31T06:31:53.946Z,9.35
2017-12-31T06:34:28.705Z,9.33
2017-12-31T06:37:03.506Z,9.36
2017-12-31T06:39:38.280Z,9.36
2017-12-31T06:42:13.431Z,9.38
2017-12-31T06:44:48.505Z,9.42
2017-12-31T06:47:23.482Z,9.44
2017-12-31T06:49:58.230Z,9.48
2017-12-31T06:52:33.103Z,9.48
2017-12-31T06:55:07.859Z,9.50
2017-12-31T06:57:42.576Z,9.50
2017-12-31T07:00:17.308Z,9.54
2017-12-31T07:02:52.229Z,9.56
2017-12-31T07:05:26.938Z,9.61
2017-12-31T07:08:01.890Z,9.73
2017-12-31T07:10:36.609Z,9.89
2017-12-31T07:13:11.478Z,10.05
2017-12-31T07:15:46.366Z,10.17
2017-12-31T07:18:21.311Z,10.27
2017-12-31T07:20:56.150Z,10.40
2017-12-31T07:23:30.983Z,10.50
2017-12-31T07:26:05.759Z,10.61
2017-12-31T07:28:40.642Z,10.66
2017-12-31T07:31:15.342Z,10.66
2017-12-31T07:33:50.323Z,10.72
2017-12-31T07:36:25.385Z,10.77
2017-12-31T07:39:00.254Z,10.79
2017-12-31T07:41:34.938Z,10.88
2017-12-31T07:44:09.747Z,10.94
2017-12-31T07:46:44.542Z,10.98
2017-12-31T07:49:19.251Z,11.05
2017-12-31T07:51:54.214Z,11.15
2017-12-31T07:54:29.049Z,11.28
2017-12-31T07:57:03.738Z,11.38
2017-12-31T07:59:38.629Z,11.46
2017-12-31T08:02:13.398Z,11.52
2017-12-31T08:04:48.105Z,11.58
2017-12-31T08:07:23.116Z,11.69
2017-12-31T08:09:58.318Z,11.77
2017-12-31T08:12:33.291Z,11.82
2017-12-31T08:15:09.730Z,11.89
2017-12-31T08:17:44.137Z,11.96
2017-12-31T08:20:18.784Z,12.03
2017-12-31T08:22:53.530Z,12.06
2017-12-31T08:25:28.367Z,12.15
2017-12-31T08:28:03.175Z,12.16
2017-12-31T08:30:38.115Z,12.18
2017-12-31T08:33:12.851Z,12.24
2017-12-31T08:35:47.610Z,12.27
2017-12-31T08:38:22.502Z,12.29
2017-12-31T08:40:57.342Z,12.34
2017-12-31T08:43:32.056Z,12.38
2017-12-31T08:46:06.681Z,12.38
2017-12-31T08:48:41.682Z,12.38
2017-12-31T08:51:16.649Z,12.35
2017-12-31T08:53:51.469Z,12.37
2017-12-31T08:56:26.214Z,12.38
2017-12-31T08:59:01.025Z,12.37
2017-12-31T09:01:35.819Z,12.39
2017-12-31T09:04:10.501Z,12.41
2017-12-31T09:06:45.805Z,12.39
2017-12-31T09:09:20.386Z,12.41
2017-12-31T09:11:55.153Z,12.42
2017-12-31T09:14:30.084Z,12.41
2017-12-31T09:17:05.189Z,12.41
2017-12-31T09:19:39.922Z,12.45
2017-12-31T09:22:14.799Z,12.49
2017-12-31T09:24:49.607Z,12.50
2017-12-31T09:27:24.693Z,12.48
2017-12-31T09:29:59.661Z,12.51
2017-12-31T09:32:34.819Z,12.53
2017-12-31T09:35:09.647Z,12.60
2017-12-31T09:37:44.353Z,12.62
2017-12-31T09:40:19.314Z,12.65
2017-12-31T09:42:54.318Z,12.68
2017-12-31T09:45:29.321Z,12.71
2017-12-31T09:48:04.197Z,12.71
2017-12-31T09:50:39.191Z,12.72
2017-12-31T09:53:13.959Z,12.74
2017-12-31T09:55:48.772Z,12.78
2017-12-31T09:58:23.713Z,12.81
2017-12-31T10:00:58.302Z,12.80
2017-12-31T10:03:32.966Z,12.81
2017-12-31T10:06:07.746Z,12.85
2017-12-31T10:08:42.518Z,12.88
2017-12-31T10:11:17.575Z,12.92
2017-12-31T10:13:52.282Z,12.90
2017-12-31T10:16:27.117Z,12.92
2017-12-31T10:19:02.054Z,12.92
2017-12-31T10:21:37.101Z,12.95
2017-12-31T10:24:11.829Z,12.97
2017-12-31T10:26:46.422Z,13.02
2017-12-31T10:29:21.464Z,13.02
2017-12-31T10:31:56.698Z,13.05
2017-12-31T10:34:31.753Z,13.06
2017-12-31T10:37:06.445Z,13.10
2017-12-31T10:39:41.129Z,13.14
2017-12-31T10:42:15.777Z,13.23
2017-12-31T10:44:50.642Z,13.27
2017-12-31T10:47:25.619Z,13.29
2017-12-31T10:50:00.453Z,13.28
2017-12-31T10:52:35.302Z,13.34
2017-12-31T10:55:10.109Z,13.36
2017-12-31T10:57:44.931Z,13.39
2017-12-31T11:00:19.693Z,13.39
2017-12-31T11:02:54.690Z,13.34
2017-12-31T11:05:29.666Z,13.35
2017-12-31T11:08:04.794Z,13.31
2017-12-31T11:10:39.479Z,13.33
2017-12-31T11:13:14.202Z,13.27
2017-12-31T11:15:48.962Z,13.25
2017-12-31T11:18:23.939Z,13.17
2017-12-31T11:20:58.694Z,13.21
2017-12-31T11:23:33.542Z,13.25
2017-12-31T11:26:08.499Z,13.24
2017-12-31T11:28:43.528Z,13.20
2017-12-31T11:31:18.345Z,13.23
2017-12-31T11:33:53.205Z,13.19
2017-12-31T11:36:28.191Z,13.20
2017-12-31T11:39:02.989Z,13.18
2017-12-31T11:41:37.546Z,13.21
2017-12-31T11:44:12.427Z,13.22
2017-12-31T11:46:47.226Z,13.17
2017-12-31T11:49:22.073Z,13.16
2017-12-31T11:51:56.605Z,13.18
2017-12-31T11:54:31.331Z,13.18
2017-12-31T11:57:06.186Z,13.22
2017-12-31T11:59:40.729Z,13.25
2017-12-31T12:02:15.706Z,13.22
2017-12-31T12:04:50.355Z,13.21
2017-12-31T12:07:25.139Z,13.27
2017-12-31T12:09:59.899Z,13.32
2017-12-31T12:12:34.619Z,13.39
2017-12-31T12:15:09.298Z,13.40
2017-12-31T12:17:44.000Z,13.44
2017-12-31T12:20:18.686Z,13.46
2017-12-31T12:22:53.654Z,13.48
2017-12-31T12:25:28.583Z,13.56
2017-12-31T12:28:03.590Z,13.59
2017-12-31T12:30:38.507Z,13.64
2017-12-31T12:33:13.290Z,13.69
2017-12-31T12:35:48.097Z,13.79
2017-12-31T12:38:23.034Z,13.85
2017-12-31T12:40:58.194Z,13.89
2017-12-31T12:43:33.055Z,13.95
2017-12-31T12:46:07.807Z,13.96
2017-12-31T12:48:42.775Z,13.99
2017-12-31T12:51:17.610Z,14.02
2017-12-31T12:53:52.543Z,14.08
2017-12-31T12:56:27.426Z,14.12
2017-12-31T12:59:02.307Z,14.14
2017-12-31T13:01:37.199Z,14.17
2017-12-31T13:04:11.333Z,14.21
2017-12-31T13:06:46.304Z,14.24
2017-12-31T13:09:21.098Z,14.29
2017-12-31T13:11:56.017Z,14.28
2017-12-31T13:14:30.830Z,14.33
2017-12-31T13:17:05.592Z,14.32
2017-12-31T13:19:40.558Z,14.32
2017-12-31T13:22:15.368Z,14.37
2017-12-31T13:24:50.390Z,14.37
2017-12-31T13:27:25.452Z,14.40
2017-12-31T13:30:00.480Z,14.44
2017-12-31T13:32:35.809Z,14.49
2017-12-31T13:35:10.503Z,14.48
2017-12-31T13:37:45.393Z,14.47
2017-12-31T13:40:20.169Z,14.51
2017-12-31T13:42:55.379Z,14.50
2017-12-31T13:45:29.747Z,14.51
2017-12-31T13:48:04.614Z,14.51
2017-12-31T13:50:39.844Z,14.55
2017-12-31T13:53:14.806Z,14.58
2017-12-31T13:55:49.859Z,14.60
2017-12-31T13:58:24.454Z,14.61
2017-12-31T14:00:59.481Z,14.63
2017-12-31T14:03:34.736Z,14.67
2017-12-31T14:06:09.232Z,14.68
2017-12-31T14:08:44.214Z,14.69
2017-12-31T14:11:18.878Z,14.70
2017-12-31T14:13:53.614Z,14.70
2017-12-31T14:16:28.425Z,14.68
2017-12-31T14:19:03.474Z,14.68
2017-12-31T14:21:38.410Z,14.70
2017-12-31T14:24:13.278Z,14.66
2017-12-31T14:26:47.974Z,14.60
2017-12-31T14:29:22.814Z,14.60
2017-12-31T14:31:57.762Z,14.58
2017-12-31T14:34:32.580Z,14.58
2017-12-31T14:37:07.490Z,14.56
2017-12-31T14:39:42.324Z,14.55
2017-12-31T14:42:17.092Z,14.51
2017-12-31T14:44:51.985Z,14.56
2017-12-31T14:47:27.486Z,14.57
2017-12-31T14:50:02.414Z,14.53
2017-12-31T14:52:37.330Z,14.52
2017-12-31T14:55:12.055Z,14.53
2017-12-31T14:57:46.648Z,14.54
2017-12-31T15:00:21.502Z,14.51
2017-12-31T15:02:56.666Z,14.46
2017-12-31T15:05:31.558Z,14.47
2017-12-31T15:08:06.426Z,14.42
2017-12-31T15:10:41.339Z,14.35
2017-12-31T15:13:16.153Z,14.21
2017-12-31T15:15:50.999Z,14.17
2017-12-31T15:18:25.698Z,14.07
2017-12-31T15:21:00.467Z,13.98
2017-12-31T15:23:35.182Z,13.90
2017-12-31T15:26:09.911Z,13.78
2017-12-31T15:28:44.638Z,13.71
2017-12-31T15:31:19.270Z,13.66
2017-12-31T15:33:54.000Z,13.58
2017-12-31T15:36:28.844Z,13.57
2017-12-31T15:39:03.246Z,13.58
2017-12-31T15:41:38.431Z,13.54
2017-12-31T15:44:13.327Z,13.52
2017-12-31T15:46:48.137Z,13.56
2017-12-31T15:49:23.163Z,13.55
2017-12-31T15:51:57.922Z,13.53
2017-12-31T15:54:32.839Z,13.53
2017-12-31T15:57:07.729Z,13.47
2017-12-31T15:59:42.423Z,13.37
2017-12-31T16:02:17.244Z,13.30
2017-12-31T16:04:52.067Z,13.29
2017-12-31T16:07:26.877Z,13.22
2017-12-31T16:10:01.690Z,13.21
2017-12-31T16:12:36.562Z,13.18
2017-12-31T16:15:11.812Z,13.09
2017-12-31T16:17:46.270Z,13.05
2017-12-31T16:20:21.026Z,13.03
2017-12-31T16:22:55.835Z,13.01
2017-12-31T16:25:30.547Z,13.00
2017-12-31T16:28:05.275Z,13.00
2017-12-31T16:30:40.105Z,12.98
2017-12-31T16:33:14.794Z,12.97
2017-12-31T16:35:49.520Z,12.98
2017-12-31T16:38:24.302Z,12.99
2017-12-31T16:40:58.997Z,12.93
2017-12-31T16:43:33.794Z,12.95
2017-12-31T16:46:08.542Z,12.97
2017-12-31T16:48:43.326Z,12.95
2017-12-31T16:51:18.038Z,12.96
2017-12-31T16:53:52.821Z,12.98
2017-12-31T16:56:27.778Z,12.95
2017-12-31T16:59:02.536Z,12.89
2017-12-31T17:01:37.406Z,12.86
2017-12-31T17:04:12.276Z,12.82
2017-12-31T17:06:47.186Z,12.77
2017-12-31T17:09:21.897Z,12.80
2017-12-31T17:11:56.646Z,12.79
2017-12-31T17:14:31.386Z,12.72
2017-12-31T17:17:06.113Z,12.64
2017-12-31T17:19:41.031Z,12.58
2017-12-31T17:22:15.812Z,12.57
2017-12-31T17:24:50.826Z,12.59
2017-12-31T17:27:26.060Z,12.57
2017-12-31T17:30:00.894Z,12.52
2017-12-31T17:32:35.788Z,12.49
2017-12-31T17:35:10.537Z,12.43
2017-12-31T17:37:45.295Z,12.43
2017-12-31T17:40:20.209Z,12.44
2017-12-31T17:42:55.054Z,12.45
2017-12-31T17:45:30.027Z,12.46
2017-12-31T17:48:04.714Z,12.41
2017-12-31T17:50:39.590Z,12.38
2017-12-31T17:53:14.185Z,12.36
2017-12-31T17:55:49.462Z,12.36
2017-12-31T17:58:24.265Z,12.25
2017-12-31T18:00:59.067Z,12.24
2017-12-31T18:03:33.865Z,12.18
2017-12-31T18:06:08.390Z,12.21
2017-12-31T18:08:43.533Z,12.24
2017-12-31T18:11:18.382Z,12.24
2017-12-31T18:13:53.183Z,12.25
2017-12-31T18:16:27.749Z,12.24
2017-12-31T18:19:02.618Z,12.21
2017-12-31T18:21:36.994Z,12.15
2017-12-31T18:24:11.941Z,12.16
2017-12-31T18:26:46.954Z,12.16
2017-12-31T18:29:21.706Z,12.15
2017-12-31T18:31:56.522Z,12.12
2017-12-31T18:34:31.073Z,12.17
2017-12-31T18:37:06.074Z,12.15
2017-12-31T18:39:41.149Z,12.18
2017-12-31T18:42:16.088Z,12.21
2017-12-31T18:44:50.953Z,12.18
2017-12-31T18:47:25.802Z,12.17
2017-12-31T18:50:00.623Z,12.16
2017-12-31T18:52:35.223Z,12.18
2017-12-31T18:55:09.878Z,12.11
2017-12-31T18:57:44.695Z,12.04
2017-12-31T19:00:19.554Z,12.09
2017-12-31T19:02:54.283Z,12.07
2017-12-31T19:05:28.892Z,12.02
2017-12-31T19:08:03.533Z,12.01
2017-12-31T19:10:38.377Z,12.01
2017-12-31T19:13:13.131Z,11.98
2017-12-31T19:15:47.919Z,11.96
2017-12-31T19:18:22.790Z,11.94
2017-12-31T19:20:57.741Z,11.96
2017-12-31T19:23:32.468Z,11.85
2017-12-31T19:26:07.379Z,11.95
2017-12-31T19:28:42.138Z,11.91
2017-12-31T19:31:16.655Z,11.87
2017-12-31T19:33:51.480Z,11.84
2017-12-31T19:36:26.115Z,11.90
2017-12-31T19:39:00.896Z,11.87
2017-12-31T19:41:35.770Z,11.84
2017-12-31T19:44:10.553Z,11.83
2017-12-31T19:46:45.539Z,11.76
2017-12-31T19:49:20.566Z,11.80
2017-12-31T19:51:55.547Z,11.81
2017-12-31T19:54:30.320Z,11.84
2017-12-31T19:57:05.288Z,11.79
2017-12-31T19:59:40.226Z,11.82
2017-12-31T20:02:15.017Z,11.79
2017-12-31T20:04:50.130Z,11.83
2017-12-31T20:07:25.106Z,11.82
2017-12-31T20:10:00.041Z,11.81
2017-12-31T20:12:35.834Z,11.78
2017-12-31T20:15:10.861Z,11.70
2017-12-31T20:17:45.814Z,11.73
2017-12-31T20:20:20.652Z,11.71
2017-12-31T20:22:55.398Z,11.75
2017-12-31T20:25:30.359Z,11.76
2017-12-31T20:28:05.163Z,11.76
2017-12-31T20:30:39.997Z,11.61
2017-12-31T20:33:14.650Z,11.65
2017-12-31T20:35:49.689Z,11.66
2017-12-31T20:38:24.403Z,11.64
2017-12-31T20:40:59.104Z,11.63
2017-12-31T20:43:33.797Z,11.68
2017-12-31T20:46:08.535Z,11.63
2017-12-31T20:48:43.081Z,11.65
2017-12-31T20:51:18.342Z,11.70
2017-12-31T20:53:53.142Z,11.66
2017-12-31T20:56:27.825Z,11.63
2017-12-31T20:59:02.597Z,11.62
2017-12-31T21:01:37.659Z,11.60
2017-12-31T21:04:12.782Z,11.55
2017-12-31T21:06:47.529Z,11.56
2017-12-31T21:09:22.440Z,11.58
2017-12-31T21:11:57.169Z,11.55
2017-12-31T21:14:32.114Z,11.55
2017-12-31T21:17:07.247Z,11.55
2017-12-31T21:19:41.950Z,11.56
2017-12-31T21:22:17.215Z,11.54
2017-12-31T21:24:52.183Z,11.54
2017-12-31T21:27:26.638Z,11.55
2017-12-31T21:30:01.534Z,11.51
2017-12-31T21:32:36.343Z,11.49
2017-12-31T21:35:11.123Z,11.50
2017-12-31T21:37:45.907Z,11.47
2017-12-31T21:40:20.621Z,11.50
2017-12-31T21:42:55.392Z,11.46
2017-12-31T21:45:30.377Z,11.46
2017-12-31T21:48:05.015Z,11.45
2017-12-31T21:50:39.777Z,11.41
2017-12-31T21:53:14.662Z,11.35
2017-12-31T21:55:49.422Z,11.35
2017-12-31T21:58:24.286Z,11.33
2017-12-31T22:00:58.948Z,11.33
2017-12-31T22:03:33.746Z,11.34
2017-12-31T22:06:08.507Z,11.34
2017-12-31T22:08:43.254Z,11.35
2017-12-31T22:11:18.486Z,11.37
2017-12-31T22:13:53.350Z,11.37
2017-12-31T22:16:28.292Z,11.38
2017-12-31T22:19:03.200Z,11.38
2017-12-31T22:21:37.762Z,11.33
2017-12-31T22:24:12.645Z,11.35
2017-12-31T22:26:47.267Z,11.33
2017-12-31T22:29:22.321Z,11.36
2017-12-31T22:31:57.556Z,11.33
2017-12-31T22:34:32.387Z,11.31
2017-12-31T22:37:06.998Z,11.25
2017-12-31T22:39:41.790Z,11.24
2017-12-31T22:42:16.742Z,11.21
2017-12-31T22:44:51.632Z,11.22
2017-12-31T22:47:26.440Z,11.20
2017-12-31T22:50:01.143Z,11.16
2017-12-31T22:52:35.970Z,11.15
2017-12-31T22:55:10.558Z,11.13
2017-12-31T22:57:45.117Z,11.15
2017-12-31T23:00:20.551Z,11.16
2017-12-31T23:02:55.398Z,11.16
2017-12-31T23:05:29.929Z,11.12
2017-12-31T23:08:04.666Z,11.08
2017-12-31T23:10:39.949Z,11.13
2017-12-31T23:13:14.975Z,11.12
2017-12-31T23:15:49.769Z,11.08
2017-12-31T23:18:24.617Z,11.02
2017-12-31T23:20:59.408Z,11.13
2017-12-31T23:23:34.314Z,11.17
2017-12-31T23:26:09.290Z,11.16
2017-12-31T23:28:44.214Z,11.19
2017-12-31T23:31:19.002Z,11.16
2017-12-31T23:33:54.018Z,11.13
2017-12-31T23:36:28.887Z,11.14
2017-12-31T23:39:03.714Z,11.11
2017-12-31T23:41:38.827Z,11.11
2017-12-31T23:44:13.563Z,11.08
2017-12-31T23:46:48.559Z,11.06
2017-12-31T23:49:23.378Z,11.11
2017-12-31T23:51:58.239Z,11.10
2017-12-31T23:54:33.033Z,11.07
2017-12-31T23:57:07.734Z,11.06
2017-12-31T23:59:42.636Z,11.02
